createdAt,value
2023-03-31T00:00:12.541Z,11.10
2023-03-31T00:01:13.238Z,11.10
2023-03-31T00:02:12.958Z,11.11
2023-03-31T00:03:13.214Z,11.10
2023-03-31T00:04:14.525Z,11.11
2023-03-31T00:05:13.499Z,11.03
2023-03-31T00:06:13.685Z,11.10
2023-03-31T00:07:13.888Z,11.02
2023-03-31T00:08:15.244Z,11.03
2023-03-31T00:09:14.781Z,11.09
2023-03-31T00:10:17.866Z,11.13
2023-03-31T00:11:15.505Z,11.09
2023-03-31T00:12:14.668Z,11.07
2023-03-31T00:13:14.835Z,11.02
2023-03-31T00:14:15.290Z,11.07
2023-03-31T00:15:15.169Z,11.06
2023-03-31T00:16:16.284Z,11.03
2023-03-31T00:17:16.183Z,11.07
2023-03-31T00:18:16.261Z,10.95
2023-03-31T00:19:15.933Z,11.07
2023-03-31T00:20:16.073Z,11.01
2023-03-31T00:21:16.745Z,10.94
2023-03-31T00:22:16.416Z,10.89
2023-03-31T00:23:16.587Z,10.96
2023-03-31T00:24:17.751Z,10.92
2023-03-31T00:25:16.899Z,10.80
2023-03-31T00:26:17.068Z,10.77
2023-03-31T00:27:17.229Z,10.86
2023-03-31T00:28:17.396Z,10.77
2023-03-31T00:29:18.244Z,10.77
2023-03-31T00:30:17.782Z,10.76
2023-03-31T00:31:18.020Z,10.71
2023-03-31T00:32:18.135Z,10.76
2023-03-31T00:33:18.370Z,10.77
2023-03-31T00:34:19.258Z,10.80
2023-03-31T00:35:18.713Z,10.71
2023-03-31T00:36:18.930Z,10.77
2023-03-31T00:37:19.747Z,10.78
2023-03-31T00:38:19.166Z,10.73
2023-03-31T00:39:19.364Z,10.76
2023-03-31T00:40:19.798Z,10.73
2023-03-31T00:41:20.245Z,10.74
2023-03-31T00:42:19.894Z,10.70
2023-03-31T00:43:20.056Z,10.77
2023-03-31T00:44:21.114Z,10.73
2023-03-31T00:45:20.383Z,10.77
2023-03-31T00:46:20.662Z,10.86
2023-03-31T00:47:21.747Z,10.78
2023-03-31T00:48:21.746Z,10.78
2023-03-31T00:49:21.045Z,10.80
2023-03-31T00:50:21.221Z,10.84
2023-03-31T00:51:22.298Z,10.78
2023-03-31T00:52:21.588Z,10.74
2023-03-31T00:53:21.752Z,10.70
2023-03-31T00:54:21.910Z,10.81
2023-03-31T00:55:22.068Z,10.77
2023-03-31T00:56:22.787Z,10.81
2023-03-31T00:57:22.502Z,10.66
2023-03-31T00:58:22.584Z,10.76
2023-03-31T00:59:23.751Z,10.73
2023-03-31T01:00:22.876Z,10.73
2023-03-31T01:01:23.821Z,10.76
2023-03-31T01:02:23.233Z,10.70
2023-03-31T01:03:23.434Z,10.74
2023-03-31T01:04:23.635Z,10.66
2023-03-31T01:05:23.811Z,10.65
2023-03-31T01:06:23.990Z,10.70
2023-03-31T01:07:24.793Z,10.76
2023-03-31T01:08:24.320Z,10.74
2023-03-31T01:09:24.514Z,10.68
2023-03-31T01:10:24.701Z,10.77
2023-03-31T01:11:24.881Z,10.66
2023-03-31T01:12:25.034Z,10.77
2023-03-31T01:13:25.218Z,10.77
2023-03-31T01:14:26.759Z,10.76
2023-03-31T01:15:26.294Z,10.80
2023-03-31T01:16:26.708Z,10.76
2023-03-31T01:17:26.147Z,10.81
2023-03-31T01:18:26.283Z,10.74
2023-03-31T01:19:26.369Z,10.77
2023-03-31T01:20:26.529Z,10.78
2023-03-31T01:21:26.698Z,10.70
2023-03-31T01:22:26.910Z,10.76
2023-03-31T01:23:27.764Z,10.74
2023-03-31T01:24:27.795Z,10.66
2023-03-31T01:25:28.265Z,10.63
2023-03-31T01:26:27.677Z,10.66
2023-03-31T01:27:27.869Z,10.66
2023-03-31T01:28:28.059Z,10.58
2023-03-31T01:29:29.233Z,10.70
2023-03-31T01:30:28.379Z,10.59
2023-03-31T01:31:28.618Z,10.43
2023-03-31T01:32:28.750Z,10.51
2023-03-31T01:33:28.864Z,10.47
2023-03-31T01:34:30.629Z,10.43
2023-03-31T01:35:29.302Z,10.52
2023-03-31T01:36:30.263Z,10.43
2023-03-31T01:37:29.560Z,10.40
2023-03-31T01:38:31.265Z,10.52
2023-03-31T01:39:29.891Z,10.40
2023-03-31T01:40:31.070Z,10.36
2023-03-31T01:41:30.223Z,10.37
2023-03-31T01:42:30.393Z,10.34
2023-03-31T01:43:30.544Z,10.47
2023-03-31T01:44:30.699Z,10.40
2023-03-31T01:45:30.882Z,10.42
2023-03-31T01:46:31.080Z,10.37
2023-03-31T01:47:31.795Z,10.37
2023-03-31T01:48:32.300Z,10.32
2023-03-31T01:49:31.583Z,10.28
2023-03-31T01:50:31.742Z,10.26
2023-03-31T01:51:31.922Z,10.28
2023-03-31T01:52:32.082Z,10.24
2023-03-31T01:53:32.257Z,10.26
2023-03-31T01:54:32.450Z,10.21
2023-03-31T01:55:32.629Z,10.22
2023-03-31T01:56:33.786Z,10.18
2023-03-31T01:57:34.787Z,10.28
2023-03-31T01:58:33.804Z,10.17
2023-03-31T01:59:34.308Z,10.17
2023-03-31T02:00:33.687Z,10.06
2023-03-31T02:01:35.602Z,10.12
2023-03-31T02:02:34.360Z,10.15
2023-03-31T02:03:34.422Z,10.14
2023-03-31T02:04:34.397Z,10.10
2023-03-31T02:05:34.563Z,10.14
2023-03-31T02:06:34.727Z,10.07
2023-03-31T02:07:34.930Z,10.07
2023-03-31T02:08:35.128Z,10.06
2023-03-31T02:09:35.303Z,10.04
2023-03-31T02:10:35.467Z,10.01
2023-03-31T02:11:35.635Z,10.04
2023-03-31T02:12:35.791Z,10.00
2023-03-31T02:13:37.285Z,10.06
2023-03-31T02:14:36.169Z,10.01
2023-03-31T02:15:36.334Z,10.04
2023-03-31T02:16:36.520Z,9.94
2023-03-31T02:17:36.693Z,9.99
2023-03-31T02:18:36.781Z,10.03
2023-03-31T02:19:36.969Z,10.03
2023-03-31T02:20:37.171Z,10.04
2023-03-31T02:21:37.341Z,10.06
2023-03-31T02:22:37.539Z,9.96
2023-03-31T02:23:37.831Z,9.94
2023-03-31T02:24:37.858Z,9.93
2023-03-31T02:25:39.722Z,9.96
2023-03-31T02:26:38.221Z,10.04
2023-03-31T02:27:38.376Z,10.07
2023-03-31T02:28:38.573Z,10.01
2023-03-31T02:29:38.763Z,10.09
2023-03-31T02:30:38.947Z,10.04
2023-03-31T02:31:40.808Z,10.07
2023-03-31T02:32:39.334Z,10.03
2023-03-31T02:33:39.532Z,10.10
2023-03-31T02:34:39.699Z,10.01
2023-03-31T02:35:40.366Z,10.04
2023-03-31T02:36:40.782Z,10.10
2023-03-31T02:37:40.176Z,10.14
2023-03-31T02:38:40.323Z,10.15
2023-03-31T02:39:43.275Z,10.12
2023-03-31T02:40:40.679Z,10.15
2023-03-31T02:41:40.897Z,10.12
2023-03-31T02:42:41.332Z,10.17
2023-03-31T02:43:41.224Z,10.15
2023-03-31T02:44:41.414Z,10.18
2023-03-31T02:45:42.894Z,10.21
2023-03-31T02:46:41.716Z,10.15
2023-03-31T02:47:41.975Z,10.22
2023-03-31T02:48:42.036Z,10.28
2023-03-31T02:49:43.819Z,10.26
2023-03-31T02:50:42.310Z,10.24
2023-03-31T02:51:42.457Z,10.24
2023-03-31T02:52:42.632Z,10.25
2023-03-31T02:53:43.780Z,10.17
2023-03-31T02:54:42.929Z,10.33
2023-03-31T02:55:43.083Z,10.18
2023-03-31T02:56:43.361Z,10.30
2023-03-31T02:57:43.482Z,10.25
2023-03-31T02:58:43.675Z,10.30
2023-03-31T02:59:43.846Z,10.26
2023-03-31T03:00:44.041Z,10.33
2023-03-31T03:01:44.913Z,10.34
2023-03-31T03:02:44.597Z,10.40
2023-03-31T03:03:44.663Z,10.39
2023-03-31T03:04:45.790Z,10.32
2023-03-31T03:05:45.943Z,10.37
2023-03-31T03:06:45.275Z,10.28
2023-03-31T03:07:45.484Z,10.37
2023-03-31T03:08:46.786Z,10.37
2023-03-31T03:09:45.804Z,10.42
2023-03-31T03:10:45.964Z,10.40
2023-03-31T03:11:46.152Z,10.33
2023-03-31T03:12:46.344Z,10.26
2023-03-31T03:13:46.538Z,10.36
2023-03-31T03:14:46.732Z,10.33
2023-03-31T03:15:48.782Z,10.32
2023-03-31T03:16:47.048Z,10.37
2023-03-31T03:17:47.310Z,10.39
2023-03-31T03:18:48.289Z,10.32
2023-03-31T03:19:48.165Z,10.34
2023-03-31T03:20:47.836Z,10.34
2023-03-31T03:21:47.995Z,10.34
2023-03-31T03:22:48.147Z,10.36
2023-03-31T03:23:48.314Z,10.33
2023-03-31T03:24:48.863Z,10.36
2023-03-31T03:25:48.745Z,10.39
2023-03-31T03:26:48.904Z,10.36
2023-03-31T03:27:49.843Z,10.37
2023-03-31T03:28:49.213Z,10.25
2023-03-31T03:29:49.858Z,10.32
2023-03-31T03:30:49.665Z,10.32
2023-03-31T03:31:50.799Z,10.33
2023-03-31T03:32:50.080Z,10.32
2023-03-31T03:33:50.241Z,10.34
2023-03-31T03:34:50.400Z,10.34
2023-03-31T03:35:50.611Z,10.33
2023-03-31T03:36:51.339Z,10.30
2023-03-31T03:37:51.002Z,10.22
2023-03-31T03:38:51.213Z,10.32
2023-03-31T03:39:51.341Z,10.30
2023-03-31T03:40:51.486Z,10.34
2023-03-31T03:41:51.694Z,10.33
2023-03-31T03:42:51.880Z,10.28
2023-03-31T03:43:52.800Z,10.37
2023-03-31T03:44:52.833Z,10.37
2023-03-31T03:45:52.409Z,10.32
2023-03-31T03:46:52.484Z,10.26
2023-03-31T03:47:52.699Z,10.22
2023-03-31T03:48:54.302Z,10.24
2023-03-31T03:49:53.044Z,10.25
2023-03-31T03:50:53.182Z,10.32
2023-03-31T03:51:53.336Z,10.25
2023-03-31T03:52:53.490Z,10.30
2023-03-31T03:53:53.632Z,10.25
2023-03-31T03:54:53.784Z,10.24
2023-03-31T03:55:53.953Z,10.25
2023-03-31T03:56:54.836Z,10.14
2023-03-31T03:57:54.262Z,10.17
2023-03-31T03:58:55.297Z,10.14
2023-03-31T03:59:54.545Z,10.19
2023-03-31T04:00:54.701Z,10.17
2023-03-31T04:01:54.906Z,10.24
2023-03-31T04:02:55.148Z,10.21
2023-03-31T04:03:55.207Z,10.18
2023-03-31T04:04:55.360Z,10.22
2023-03-31T04:05:56.303Z,10.26
2023-03-31T04:06:56.356Z,10.15
2023-03-31T04:07:55.859Z,10.14
2023-03-31T04:08:56.092Z,10.18
2023-03-31T04:09:56.227Z,10.10
2023-03-31T04:10:57.804Z,10.24
2023-03-31T04:11:56.540Z,10.15
2023-03-31T04:12:57.298Z,10.09
2023-03-31T04:13:57.337Z,10.09
2023-03-31T04:14:56.962Z,10.14
2023-03-31T04:15:57.149Z,10.21
2023-03-31T04:16:58.298Z,10.17
2023-03-31T04:17:57.614Z,10.17
2023-03-31T04:18:57.686Z,10.15
2023-03-31T04:19:57.822Z,10.15
2023-03-31T04:20:57.971Z,10.22
2023-03-31T04:21:58.147Z,10.19
2023-03-31T04:22:58.301Z,10.15
2023-03-31T04:24:00.316Z,10.21
2023-03-31T04:25:00.305Z,10.22
2023-03-31T04:25:58.811Z,10.25
2023-03-31T04:26:59.015Z,10.17
2023-03-31T04:27:59.206Z,10.21
2023-03-31T04:28:59.361Z,10.15
2023-03-31T04:30:00.345Z,10.24
2023-03-31T04:31:00.302Z,10.18
2023-03-31T04:32:01.855Z,10.10
2023-03-31T04:33:00.197Z,10.10
2023-03-31T04:34:00.302Z,10.25
2023-03-31T04:35:00.458Z,10.25
2023-03-31T04:36:00.667Z,10.28
2023-03-31T04:37:00.807Z,10.26
2023-03-31T04:38:00.954Z,10.25
2023-03-31T04:39:01.120Z,10.25
2023-03-31T04:40:01.352Z,10.18
2023-03-31T04:41:01.869Z,10.18
2023-03-31T04:42:01.623Z,10.15
2023-03-31T04:43:01.779Z,10.22
2023-03-31T04:44:01.933Z,10.21
2023-03-31T04:45:02.846Z,10.25
2023-03-31T04:46:02.276Z,10.21
2023-03-31T04:47:02.489Z,10.15
2023-03-31T04:48:04.241Z,10.19
2023-03-31T04:49:03.847Z,10.17
2023-03-31T04:50:04.316Z,10.10
2023-03-31T04:51:03.360Z,10.17
2023-03-31T04:52:03.497Z,10.12
2023-03-31T04:53:04.345Z,10.09
2023-03-31T04:54:03.861Z,10.19
2023-03-31T04:55:04.016Z,10.19
2023-03-31T04:56:04.492Z,10.21
2023-03-31T04:57:04.366Z,10.22
2023-03-31T04:58:04.569Z,10.15
2023-03-31T04:59:04.754Z,10.25
2023-03-31T05:00:04.952Z,10.10
2023-03-31T05:01:05.200Z,10.17
2023-03-31T05:02:05.339Z,10.09
2023-03-31T05:03:05.541Z,10.17
2023-03-31T05:04:05.620Z,10.10
2023-03-31T05:05:07.313Z,10.18
2023-03-31T05:06:06.956Z,10.10
2023-03-31T05:07:06.382Z,10.07
2023-03-31T05:08:06.306Z,10.14
2023-03-31T05:09:07.341Z,10.15
2023-03-31T05:10:06.623Z,10.18
2023-03-31T05:11:06.812Z,10.18
2023-03-31T05:12:06.982Z,10.15
2023-03-31T05:13:07.692Z,10.24
2023-03-31T05:14:07.401Z,10.07
2023-03-31T05:15:08.329Z,10.21
2023-03-31T05:16:08.059Z,10.18
2023-03-31T05:17:07.970Z,10.09
2023-03-31T05:18:08.326Z,10.12
2023-03-31T05:19:08.822Z,10.14
2023-03-31T05:20:09.363Z,10.14
2023-03-31T05:21:10.323Z,10.10
2023-03-31T05:22:08.800Z,10.07
2023-03-31T05:23:08.960Z,10.12
2023-03-31T05:24:09.869Z,10.07
2023-03-31T05:25:10.822Z,10.07
2023-03-31T05:26:11.329Z,10.06
2023-03-31T05:27:10.326Z,10.10
2023-03-31T05:28:09.970Z,10.06
2023-03-31T05:29:10.141Z,10.10
2023-03-31T05:30:10.394Z,10.03
2023-03-31T05:31:10.537Z,10.06
2023-03-31T05:32:10.716Z,10.07
2023-03-31T05:33:10.848Z,10.07
2023-03-31T05:34:11.002Z,10.07
2023-03-31T05:35:12.335Z,9.99
2023-03-31T05:36:13.355Z,10.07
2023-03-31T05:37:11.466Z,10.01
2023-03-31T05:38:12.325Z,10.06
2023-03-31T05:39:12.390Z,10.00
2023-03-31T05:40:12.034Z,9.99
2023-03-31T05:41:12.184Z,9.91
2023-03-31T05:42:12.332Z,10.07
2023-03-31T05:43:12.486Z,9.97
2023-03-31T05:44:12.641Z,9.91
2023-03-31T05:45:12.879Z,10.06
2023-03-31T05:46:13.845Z,9.96
2023-03-31T05:47:14.207Z,10.01
2023-03-31T05:48:13.482Z,10.00
2023-03-31T05:49:14.329Z,10.01
2023-03-31T05:50:14.904Z,9.91
2023-03-31T05:51:15.067Z,9.97
2023-03-31T05:52:14.394Z,9.89
2023-03-31T05:53:14.436Z,9.94
2023-03-31T05:54:14.610Z,9.93
2023-03-31T05:55:14.765Z,9.93
2023-03-31T05:56:14.929Z,9.96
2023-03-31T05:57:15.135Z,9.96
2023-03-31T05:58:15.305Z,9.97
2023-03-31T05:59:15.434Z,10.00
2023-03-31T06:00:15.614Z,9.89
2023-03-31T06:01:18.190Z,9.91
2023-03-31T06:02:16.443Z,9.89
2023-03-31T06:03:17.375Z,10.00
2023-03-31T06:04:16.293Z,9.99
2023-03-31T06:05:17.373Z,9.99
2023-03-31T06:06:16.583Z,10.01
2023-03-31T06:07:16.662Z,9.91
2023-03-31T06:08:16.844Z,10.07
2023-03-31T06:09:17.025Z,10.09
2023-03-31T06:10:18.866Z,9.96
2023-03-31T06:11:17.411Z,10.09
2023-03-31T06:12:17.880Z,10.09
2023-03-31T06:13:17.824Z,10.04
2023-03-31T06:14:18.015Z,10.03
2023-03-31T06:15:18.191Z,10.01
2023-03-31T06:16:18.446Z,10.04
2023-03-31T06:17:19.359Z,10.03
2023-03-31T06:18:19.848Z,10.10
2023-03-31T06:19:18.865Z,10.14
2023-03-31T06:20:27.757Z,10.07
2023-03-31T06:21:21.175Z,10.06
2023-03-31T06:22:20.024Z,10.07
2023-03-31T06:23:19.569Z,10.03
2023-03-31T06:24:19.734Z,10.01
2023-03-31T06:25:19.934Z,10.06
2023-03-31T06:26:20.796Z,10.12
2023-03-31T06:27:20.357Z,10.09
2023-03-31T06:28:20.552Z,10.07
2023-03-31T06:29:20.821Z,10.09
2023-03-31T06:30:21.879Z,9.99
2023-03-31T06:31:21.195Z,10.01
2023-03-31T06:32:21.333Z,10.07
2023-03-31T06:33:22.377Z,10.10
2023-03-31T06:34:21.770Z,10.03
2023-03-31T06:35:23.860Z,10.00
2023-03-31T06:36:22.014Z,10.04
2023-03-31T06:37:22.851Z,10.15
2023-03-31T06:38:22.416Z,10.09
2023-03-31T06:39:22.613Z,10.06
2023-03-31T06:40:22.823Z,10.03
2023-03-31T06:41:23.853Z,10.12
2023-03-31T06:42:23.904Z,10.25
2023-03-31T06:43:23.453Z,10.15
2023-03-31T06:44:23.624Z,10.09
2023-03-31T06:45:23.818Z,10.01
2023-03-31T06:46:24.067Z,10.07
2023-03-31T06:47:24.166Z,10.15
2023-03-31T06:48:24.848Z,10.10
2023-03-31T06:49:24.546Z,10.01
2023-03-31T06:50:24.749Z,10.09
2023-03-31T06:51:26.846Z,9.99
2023-03-31T06:52:25.844Z,10.06
2023-03-31T06:53:25.254Z,10.00
2023-03-31T06:54:26.472Z,10.14
2023-03-31T06:55:25.663Z,10.09
2023-03-31T06:56:25.875Z,10.06
2023-03-31T06:57:26.062Z,10.10
2023-03-31T06:58:27.718Z,10.10
2023-03-31T06:59:26.487Z,10.04
2023-03-31T07:00:26.733Z,10.09
2023-03-31T07:01:27.915Z,10.00
2023-03-31T07:02:27.975Z,10.03
2023-03-31T07:03:27.298Z,10.06
2023-03-31T07:04:28.398Z,10.04
2023-03-31T07:05:27.621Z,10.04
2023-03-31T07:06:27.776Z,10.03
2023-03-31T07:07:27.948Z,9.96
2023-03-31T07:08:28.125Z,9.97
2023-03-31T07:09:28.858Z,9.93
2023-03-31T07:10:29.405Z,9.96
2023-03-31T07:11:28.637Z,9.96
2023-03-31T07:12:28.784Z,9.94
2023-03-31T07:13:28.974Z,9.94
2023-03-31T07:14:29.867Z,9.89
2023-03-31T07:15:30.716Z,9.97
2023-03-31T07:16:30.590Z,9.97
2023-03-31T07:17:29.620Z,9.96
2023-03-31T07:18:30.144Z,10.01
2023-03-31T07:19:30.906Z,9.93
2023-03-31T07:20:30.865Z,10.00
2023-03-31T07:21:30.390Z,9.96
2023-03-31T07:22:31.218Z,9.94
2023-03-31T07:23:31.362Z,9.85
2023-03-31T07:24:30.884Z,9.91
2023-03-31T07:25:31.050Z,9.82
2023-03-31T07:26:31.213Z,9.76
2023-03-31T07:27:31.387Z,9.93
2023-03-31T07:28:31.553Z,9.78
2023-03-31T07:29:31.752Z,9.81
2023-03-31T07:30:32.854Z,9.79
2023-03-31T07:31:32.921Z,9.75
2023-03-31T07:32:32.463Z,9.75
2023-03-31T07:33:32.570Z,9.83
2023-03-31T07:34:33.962Z,9.76
2023-03-31T07:35:32.900Z,9.82
2023-03-31T07:36:33.726Z,9.73
2023-03-31T07:37:34.857Z,9.79
2023-03-31T07:38:34.301Z,9.79
2023-03-31T07:39:34.595Z,9.79
2023-03-31T07:40:33.778Z,9.75
2023-03-31T07:41:34.918Z,9.67
2023-03-31T07:42:34.098Z,9.70
2023-03-31T07:43:34.875Z,9.67
2023-03-31T07:44:35.384Z,9.73
2023-03-31T07:45:35.417Z,9.75
2023-03-31T07:46:35.442Z,9.71
2023-03-31T07:47:34.980Z,9.76
2023-03-31T07:48:36.302Z,9.76
2023-03-31T07:49:35.330Z,9.67
2023-03-31T07:50:36.360Z,9.73
2023-03-31T07:51:35.746Z,9.64
2023-03-31T07:52:36.852Z,9.76
2023-03-31T07:53:36.167Z,9.68
2023-03-31T07:54:36.371Z,9.66
2023-03-31T07:55:36.564Z,9.73
2023-03-31T07:56:37.407Z,9.67
2023-03-31T07:57:37.907Z,9.70
2023-03-31T07:58:37.864Z,9.71
2023-03-31T07:59:37.269Z,9.70
2023-03-31T08:00:38.375Z,9.76
2023-03-31T08:01:37.706Z,9.78
2023-03-31T08:02:37.983Z,9.66
2023-03-31T08:03:38.028Z,9.70
2023-03-31T08:04:59.914Z,9.58
2023-03-31T08:05:38.916Z,9.71
2023-03-31T08:06:38.415Z,9.66
2023-03-31T08:07:38.563Z,9.61
2023-03-31T08:08:38.726Z,9.67
2023-03-31T08:09:40.367Z,9.66
2023-03-31T08:10:39.123Z,9.66
2023-03-31T08:11:39.913Z,9.73
2023-03-31T08:12:39.426Z,9.76
2023-03-31T08:13:40.351Z,9.71
2023-03-31T08:14:41.515Z,9.79
2023-03-31T08:15:40.950Z,9.91
2023-03-31T08:16:40.188Z,9.79
2023-03-31T08:17:40.874Z,9.93
2023-03-31T08:18:40.427Z,9.96
2023-03-31T08:19:40.580Z,9.99
2023-03-31T08:20:41.378Z,10.06
2023-03-31T08:21:40.889Z,9.96
2023-03-31T08:22:41.078Z,10.09
2023-03-31T08:23:41.735Z,10.10
2023-03-31T08:24:41.867Z,10.09
2023-03-31T08:25:43.892Z,10.19
2023-03-31T08:26:41.620Z,10.18
2023-03-31T08:27:42.401Z,10.19
2023-03-31T08:28:42.907Z,10.10
2023-03-31T08:29:42.213Z,10.18
2023-03-31T08:30:42.359Z,10.24
2023-03-31T08:31:42.528Z,10.28
2023-03-31T08:32:43.365Z,10.30
2023-03-31T08:33:43.867Z,10.33
2023-03-31T08:34:43.870Z,10.40
2023-03-31T08:35:43.325Z,10.28
2023-03-31T08:36:43.400Z,10.43
2023-03-31T08:37:43.547Z,10.46
2023-03-31T08:38:43.711Z,10.52
2023-03-31T08:39:43.848Z,10.40
2023-03-31T08:40:44.950Z,10.53
2023-03-31T08:41:44.234Z,10.63
2023-03-31T08:42:44.925Z,10.58
2023-03-31T08:43:45.411Z,10.71
2023-03-31T08:44:44.682Z,10.77
2023-03-31T08:45:44.909Z,10.98
2023-03-31T08:46:45.034Z,11.16
2023-03-31T08:47:45.210Z,11.16
2023-03-31T08:48:46.864Z,11.41
2023-03-31T08:49:45.615Z,11.50
2023-03-31T08:50:47.445Z,11.57
2023-03-31T08:51:46.431Z,11.62
2023-03-31T08:52:46.077Z,11.71
2023-03-31T08:53:46.274Z,11.77
2023-03-31T08:54:46.476Z,11.65
2023-03-31T08:55:46.653Z,11.80
2023-03-31T08:56:46.899Z,11.85
2023-03-31T08:57:47.874Z,11.83
2023-03-31T08:58:47.161Z,11.80
2023-03-31T08:59:47.343Z,11.85
2023-03-31T09:00:47.537Z,11.77
2023-03-31T09:01:55.333Z,11.83
2023-03-31T09:02:50.797Z,11.89
2023-03-31T09:03:48.028Z,11.96
2023-03-31T09:04:48.113Z,11.87
2023-03-31T09:05:59.269Z,11.87
2023-03-31T09:06:51.446Z,11.90
2023-03-31T09:07:50.377Z,12.05
2023-03-31T09:08:48.879Z,12.04
2023-03-31T09:09:49.076Z,11.89
2023-03-31T09:10:49.939Z,12.13
2023-03-31T09:11:49.459Z,12.05
2023-03-31T09:12:49.638Z,12.13
2023-03-31T09:13:49.806Z,11.94
2023-03-31T09:14:50.440Z,12.04
2023-03-31T09:15:50.097Z,12.06
2023-03-31T09:16:50.285Z,12.15
2023-03-31T09:17:50.491Z,12.26
2023-03-31T09:18:50.674Z,12.49
2023-03-31T09:19:51.381Z,12.71
2023-03-31T09:20:51.073Z,12.97
2023-03-31T09:21:51.258Z,13.29
2023-03-31T09:22:52.324Z,13.46
2023-03-31T09:23:52.571Z,13.36
2023-03-31T09:24:51.828Z,13.30
2023-03-31T09:25:52.020Z,13.30
2023-03-31T09:26:52.208Z,13.09
2023-03-31T09:27:53.387Z,13.00
2023-03-31T09:28:52.527Z,12.89
2023-03-31T09:29:52.728Z,12.71
2023-03-31T09:30:52.905Z,12.67
2023-03-31T09:31:53.120Z,12.56
2023-03-31T09:32:55.921Z,12.45
2023-03-31T09:33:53.552Z,12.29
2023-03-31T09:34:53.741Z,12.20
2023-03-31T09:35:54.925Z,11.97
2023-03-31T09:36:54.123Z,11.93
2023-03-31T09:37:54.508Z,11.93
2023-03-31T09:38:55.425Z,11.75
2023-03-31T09:39:55.395Z,11.86
2023-03-31T09:40:54.818Z,11.85
2023-03-31T09:41:56.923Z,11.75
2023-03-31T09:42:56.391Z,11.71
2023-03-31T09:43:56.396Z,11.70
2023-03-31T09:44:57.395Z,11.57
2023-03-31T09:46:08.520Z,11.65
2023-03-31T09:46:57.970Z,11.72
2023-03-31T09:47:56.996Z,11.72
2023-03-31T09:48:56.940Z,11.68
2023-03-31T09:49:57.400Z,11.70
2023-03-31T09:50:56.682Z,11.78
2023-03-31T09:51:56.834Z,11.89
2023-03-31T09:52:56.960Z,12.16
2023-03-31T09:53:57.124Z,12.75
2023-03-31T09:54:57.265Z,13.24
2023-03-31T09:55:57.423Z,13.44
2023-03-31T09:56:57.621Z,13.24
2023-03-31T09:57:58.899Z,13.41
2023-03-31T09:58:58.902Z,13.71
2023-03-31T09:59:58.024Z,13.95
2023-03-31T10:00:58.185Z,14.10
2023-03-31T10:01:59.065Z,13.81
2023-03-31T10:02:58.485Z,13.67
2023-03-31T10:03:59.420Z,13.65
2023-03-31T10:04:58.804Z,14.12
2023-03-31T10:05:59.771Z,14.21
2023-03-31T10:06:59.136Z,14.27
2023-03-31T10:07:59.945Z,14.49
2023-03-31T10:08:59.466Z,14.91
2023-03-31T10:09:59.596Z,14.84
2023-03-31T10:11:00.399Z,14.94
2023-03-31T10:11:59.946Z,14.68
2023-03-31T10:13:00.148Z,14.52
2023-03-31T10:14:02.413Z,14.32
2023-03-31T10:15:00.903Z,13.95
2023-03-31T10:16:00.584Z,13.76
2023-03-31T10:17:00.955Z,13.79
2023-03-31T10:18:01.948Z,13.91
2023-03-31T10:19:02.348Z,14.04
2023-03-31T10:20:01.338Z,14.06
2023-03-31T10:21:01.961Z,13.95
2023-03-31T10:22:01.755Z,13.94
2023-03-31T10:23:02.769Z,14.12
2023-03-31T10:24:02.154Z,14.12
2023-03-31T10:25:02.324Z,13.96
2023-03-31T10:26:02.540Z,13.94
2023-03-31T10:27:02.617Z,13.84
2023-03-31T10:28:02.777Z,13.74
2023-03-31T10:29:04.936Z,13.54
2023-03-31T10:30:03.155Z,13.17
2023-03-31T10:31:04.103Z,12.89
2023-03-31T10:32:03.554Z,12.96
2023-03-31T10:33:15.217Z,12.84
2023-03-31T10:34:05.915Z,13.03
2023-03-31T10:35:04.069Z,13.03
2023-03-31T10:36:04.239Z,13.18
2023-03-31T10:37:04.475Z,13.30
2023-03-31T10:38:06.070Z,13.46
2023-03-31T10:39:05.757Z,13.62
2023-03-31T10:40:05.010Z,13.56
2023-03-31T10:41:06.092Z,13.67
2023-03-31T10:42:06.414Z,13.84
2023-03-31T10:43:05.541Z,13.77
2023-03-31T10:44:07.911Z,13.81
2023-03-31T10:45:06.408Z,13.96
2023-03-31T10:46:06.100Z,13.84
2023-03-31T10:47:06.330Z,13.88
2023-03-31T10:48:06.478Z,13.89
2023-03-31T10:49:06.652Z,13.84
2023-03-31T10:50:06.777Z,13.95
2023-03-31T10:51:07.084Z,13.98
2023-03-31T10:52:07.102Z,14.04
2023-03-31T10:53:07.957Z,14.09
2023-03-31T10:54:07.473Z,14.27
2023-03-31T10:55:07.618Z,14.16
2023-03-31T10:56:07.761Z,14.16
2023-03-31T10:57:08.476Z,14.16
2023-03-31T10:58:08.908Z,14.21
2023-03-31T10:59:08.322Z,14.09
2023-03-31T11:00:08.469Z,13.99
2023-03-31T11:01:08.661Z,13.79
2023-03-31T11:02:09.420Z,13.80
2023-03-31T11:03:09.984Z,13.70
2023-03-31T11:04:09.178Z,13.81
2023-03-31T11:05:09.951Z,13.89
2023-03-31T11:06:10.409Z,13.95
2023-03-31T11:07:10.449Z,13.94
2023-03-31T11:08:10.480Z,13.83
2023-03-31T11:09:10.026Z,13.92
2023-03-31T11:10:10.239Z,13.71
2023-03-31T11:11:10.409Z,13.79
2023-03-31T11:12:11.276Z,13.73
2023-03-31T11:13:10.790Z,13.62
2023-03-31T11:14:10.976Z,13.76
2023-03-31T11:15:11.147Z,13.52
2023-03-31T11:16:11.532Z,13.33
2023-03-31T11:17:12.448Z,12.93
2023-03-31T11:18:11.717Z,12.56
2023-03-31T11:19:11.872Z,12.26
2023-03-31T11:20:12.041Z,11.74
2023-03-31T11:21:12.383Z,11.64
2023-03-31T11:22:13.411Z,11.53
2023-03-31T11:23:12.535Z,11.32
2023-03-31T11:24:13.914Z,11.19
2023-03-31T11:25:12.911Z,11.16
2023-03-31T11:26:14.914Z,11.07
2023-03-31T11:27:13.466Z,11.09
2023-03-31T11:28:13.374Z,11.14
2023-03-31T11:29:13.592Z,11.13
2023-03-31T11:30:14.418Z,11.24
2023-03-31T11:31:13.930Z,11.38
2023-03-31T11:32:14.527Z,11.38
2023-03-31T11:33:14.520Z,11.57
2023-03-31T11:34:14.364Z,11.96
2023-03-31T11:35:14.570Z,12.45
2023-03-31T11:36:15.454Z,12.78
2023-03-31T11:37:14.892Z,13.09
2023-03-31T11:38:15.094Z,13.41
2023-03-31T11:39:15.279Z,13.77
2023-03-31T11:40:15.445Z,14.16
2023-03-31T11:41:15.718Z,14.49
2023-03-31T11:42:16.345Z,14.68
2023-03-31T11:43:16.921Z,14.47
2023-03-31T11:44:16.089Z,14.62
2023-03-31T11:45:17.423Z,14.68
2023-03-31T11:46:17.048Z,14.74
2023-03-31T11:47:16.576Z,14.71
2023-03-31T11:48:16.791Z,14.65
2023-03-31T11:49:16.995Z,14.62
2023-03-31T11:50:17.200Z,14.60
2023-03-31T11:51:18.926Z,14.52
2023-03-31T11:52:18.418Z,14.32
2023-03-31T11:53:19.291Z,14.17
2023-03-31T11:54:17.925Z,14.07
2023-03-31T11:55:18.121Z,13.56
2023-03-31T11:56:18.284Z,12.52
2023-03-31T11:57:18.507Z,11.85
2023-03-31T11:58:18.574Z,11.19
2023-03-31T11:59:18.745Z,10.76
2023-03-31T12:00:18.932Z,10.46
2023-03-31T12:01:19.113Z,10.37
2023-03-31T12:02:19.489Z,10.21
2023-03-31T12:03:19.516Z,10.14
2023-03-31T12:04:20.426Z,10.14
2023-03-31T12:05:19.840Z,10.04
2023-03-31T12:06:20.111Z,9.93
2023-03-31T12:07:20.795Z,9.83
2023-03-31T12:08:20.974Z,9.81
2023-03-31T12:09:20.507Z,9.79
2023-03-31T12:10:20.671Z,9.66
2023-03-31T12:11:20.939Z,9.63
2023-03-31T12:12:21.941Z,9.71
2023-03-31T12:13:21.210Z,9.70
2023-03-31T12:14:21.391Z,9.75
2023-03-31T12:15:21.559Z,9.75
2023-03-31T12:16:21.769Z,9.81
2023-03-31T12:17:23.038Z,9.67
2023-03-31T12:18:22.188Z,9.64
2023-03-31T12:19:22.352Z,9.70
2023-03-31T12:20:23.474Z,9.66
2023-03-31T12:21:23.476Z,9.68
2023-03-31T12:22:22.959Z,9.73
2023-03-31T12:23:23.800Z,9.70
2023-03-31T12:24:23.301Z,9.70
2023-03-31T12:25:23.995Z,9.81
2023-03-31T12:26:24.476Z,9.83
2023-03-31T12:27:25.434Z,9.81
2023-03-31T12:28:23.918Z,9.97
2023-03-31T12:29:24.976Z,9.93
2023-03-31T12:30:24.232Z,9.89
2023-03-31T12:31:25.032Z,9.96
2023-03-31T12:32:25.459Z,10.03
2023-03-31T12:33:24.702Z,10.09
2023-03-31T12:34:24.942Z,10.12
2023-03-31T12:35:25.082Z,10.32
2023-03-31T12:36:25.973Z,10.32
2023-03-31T12:37:25.388Z,10.36
2023-03-31T12:38:26.478Z,10.52
2023-03-31T12:39:26.728Z,10.62
2023-03-31T12:40:26.449Z,10.66
2023-03-31T12:41:26.946Z,10.63
2023-03-31T12:42:26.350Z,10.76
2023-03-31T12:43:26.542Z,10.91
2023-03-31T12:44:26.681Z,10.94
2023-03-31T12:45:26.844Z,11.01
2023-03-31T12:46:28.039Z,11.09
2023-03-31T12:47:27.216Z,11.27
2023-03-31T12:48:27.362Z,11.47
2023-03-31T12:49:27.547Z,11.46
2023-03-31T12:50:27.699Z,11.62
2023-03-31T12:51:27.857Z,11.64
2023-03-31T12:52:29.948Z,11.68
2023-03-31T12:53:28.180Z,11.86
2023-03-31T12:54:28.277Z,11.85
2023-03-31T12:55:29.006Z,11.87
2023-03-31T12:56:28.672Z,11.93
2023-03-31T12:57:30.037Z,12.05
2023-03-31T12:58:31.671Z,12.04